sensor_id;sensor_type;location;lat;lon;timestamp;temperature;humidity
32322;DHT22;61553;48.994;8.940;2022-12-07T00:01:35;3.50;99.90
32322;DHT22;61553;48.994;8.940;2022-12-07T00:04:03;3.50;99.90
32322;DHT22;61553;48.994;8.940;2022-12-07T00:06:36;3.50;99.90
32322;DHT22;61553;48.994;8.940;2022-12-07T00:09:03;3.50;99.90
32322;DHT22;61553;48.994;8.940;2022-12-07T00:11:29;3.50;99.90
32322;DHT22;61553;48.994;8.940;2022-12-07T00:13:58;3.40;99.90
32322;DHT22;61553;48.994;8.940;2022-12-07T00:16:26;3.40;99.90
32322;DHT22;61553;48.994;8.940;2022-12-07T00:18:52;3.40;99.90
32322;DHT22;61553;48.994;8.940;2022-12-07T00:21:23;3.40;99.90
32322;DHT22;61553;48.994;8.940;2022-12-07T00:23:50;3.40;99.90
32322;DHT22;61553;48.994;8.940;2022-12-07T00:26:17;3.30;99.90
32322;DHT22;61553;48.994;8.940;2022-12-07T00:28:48;3.30;99.90
32322;DHT22;61553;48.994;8.940;2022-12-07T00:31:14;3.30;99.90
32322;DHT22;61553;48.994;8.940;2022-12-07T00:33:40;3.40;99.90
32322;DHT22;61553;48.994;8.940;2022-12-07T00:36:08;3.40;99.90
32322;DHT22;61553;48.994;8.940;2022-12-07T00:38:36;3.40;99.90
32322;DHT22;61553;48.994;8.940;2022-12-07T00:41:05;3.40;99.90
32322;DHT22;61553;48.994;8.940;2022-12-07T00:43:31;3.30;99.90
32322;DHT22;61553;48.994;8.940;2022-12-07T00:45:57;3.30;99.90
32322;DHT22;61553;48.994;8.940;2022-12-07T00:48:24;3.30;99.90
32322;DHT22;61553;48.994;8.940;2022-12-07T00:50:50;3.30;99.90
32322;DHT22;61553;48.994;8.940;2022-12-07T00:53:16;3.20;99.90
32322;DHT22;61553;48.994;8.940;2022-12-07T00:55:42;3.20;99.90
32322;DHT22;61553;48.994;8.940;2022-12-07T00:58:08;3.20;99.90
32322;DHT22;61553;48.994;8.940;2022-12-07T01:00:35;3.30;99.90
32322;DHT22;61553;48.994;8.940;2022-12-07T01:03:01;3.30;99.90
32322;DHT22;61553;48.994;8.940;2022-12-07T01:05:27;3.30;99.90
32322;DHT22;61553;48.994;8.940;2022-12-07T01:07:53;3.30;99.90
32322;DHT22;61553;48.994;8.940;2022-12-07T01:10:18;3.40;99.90
32322;DHT22;61553;48.994;8.940;2022-12-07T01:12:44;3.50;99.90
32322;DHT22;61553;48.994;8.940;2022-12-07T01:15:11;3.50;99.90
32322;DHT22;61553;48.994;8.940;2022-12-07T01:17:36;3.50;99.90
32322;DHT22;61553;48.994;8.940;2022-12-07T01:20:03;3.50;99.90
32322;DHT22;61553;48.994;8.940;2022-12-07T01:22:29;3.40;99.90
32322;DHT22;61553;48.994;8.940;2022-12-07T01:24:54;3.40;99.90
32322;DHT22;61553;48.994;8.940;2022-12-07T01:27:20;3.40;99.90
32322;DHT22;61553;48.994;8.940;2022-12-07T01:29:46;3.40;99.90
32322;DHT22;61553;48.994;8.940;2022-12-07T01:32:12;3.30;99.90
32322;DHT22;61553;48.994;8.940;2022-12-07T01:34:37;3.30;99.90
32322;DHT22;61553;48.994;8.940;2022-12-07T01:37:04;3.30;99.90
32322;DHT22;61553;48.994;8.940;2022-12-07T01:39:29;3.30;99.90
32322;DHT22;61553;48.994;8.940;2022-12-07T01:41:55;3.20;99.90
32322;DHT22;61553;48.994;8.940;2022-12-07T01:44:28;3.30;99.90
32322;DHT22;61553;48.994;8.940;2022-12-07T01:47:03;3.20;99.90
32322;DHT22;61553;48.994;8.940;2022-12-07T01:49:44;3.30;99.90
32322;DHT22;61553;48.994;8.940;2022-12-07T01:52:22;3.30;99.90
32322;DHT22;61553;48.994;8.940;2022-12-07T01:54:52;3.30;99.90
32322;DHT22;61553;48.994;8.940;2022-12-07T01:57:20;3.30;99.90
32322;DHT22;61553;48.994;8.940;2022-12-07T01:59:49;3.30;99.90
32322;DHT22;61553;48.994;8.940;2022-12-07T02:02:31;3.30;99.90
32322;DHT22;61553;48.994;8.940;2022-12-07T02:04:59;3.30;99.90
32322;DHT22;61553;48.994;8.940;2022-12-07T02:07:27;3.30;99.90
32322;DHT22;61553;48.994;8.940;2022-12-07T02:09:53;3.20;99.90
32322;DHT22;61553;48.994;8.940;2022-12-07T02:12:19;3.20;99.90
32322;DHT22;61553;48.994;8.940;2022-12-07T02:14:46;3.20;99.90
32322;DHT22;61553;48.994;8.940;2022-12-07T02:20:30;3.10;99.90
32322;DHT22;61553;48.994;8.940;2022-12-07T02:28:49;2.90;99.90
32322;DHT22;61553;48.994;8.940;2022-12-07T02:31:19;2.80;99.90
32322;DHT22;61553;48.994;8.940;2022-12-07T02:33:54;2.80;99.90
32322;DHT22;61553;48.994;8.940;2022-12-07T02:36:28;2.70;99.90
32322;DHT22;61553;48.994;8.940;2022-12-07T02:39:11;2.70;99.90
32322;DHT22;61553;48.994;8.940;2022-12-07T02:41:48;2.70;99.90
32322;DHT22;61553;48.994;8.940;2022-12-07T02:44:23;2.70;99.90
32322;DHT22;61553;48.994;8.940;2022-12-07T02:46:54;2.70;99.90
32322;DHT22;61553;48.994;8.940;2022-12-07T02:49:22;2.60;99.90
32322;DHT22;61553;48.994;8.940;2022-12-07T02:51:49;2.60;99.90
32322;DHT22;61553;48.994;8.940;2022-12-07T02:54:17;2.60;99.90
32322;DHT22;61553;48.994;8.940;2022-12-07T03:04:39;2.70;99.90
32322;DHT22;61553;48.994;8.940;2022-12-07T03:09:50;2.90;99.90
32322;DHT22;61553;48.994;8.940;2022-12-07T03:12:26;2.90;99.90
32322;DHT22;61553;48.994;8.940;2022-12-07T03:17:53;3.00;99.90
32322;DHT22;61553;48.994;8.940;2022-12-07T03:20:21;3.00;99.90
32322;DHT22;61553;48.994;8.940;2022-12-07T03:22:49;3.00;99.90
32322;DHT22;61553;48.994;8.940;2022-12-07T03:25:17;3.00;99.90
32322;DHT22;61553;48.994;8.940;2022-12-07T03:28:05;3.10;99.90
32322;DHT22;61553;48.994;8.940;2022-12-07T03:30:44;3.10;99.90
32322;DHT22;61553;48.994;8.940;2022-12-07T03:33:24;3.10;99.90
32322;DHT22;61553;48.994;8.940;2022-12-07T03:38:25;3.10;99.90
32322;DHT22;61553;48.994;8.940;2022-12-07T03:41:06;3.00;99.90
32322;DHT22;61553;48.994;8.940;2022-12-07T03:43:36;3.10;99.90
32322;DHT22;61553;48.994;8.940;2022-12-07T03:49:11;3.00;99.90
32322;DHT22;61553;48.994;8.940;2022-12-07T03:57:33;3.10;99.90
32322;DHT22;61553;48.994;8.940;2022-12-07T04:00:03;3.00;99.90
32322;DHT22;61553;48.994;8.940;2022-12-07T04:02:29;3.00;99.90
32322;DHT22;61553;48.994;8.940;2022-12-07T04:04:56;3.00;99.90
32322;DHT22;61553;48.994;8.940;2022-12-07T04:07:21;3.00;99.90
32322;DHT22;61553;48.994;8.940;2022-12-07T04:09:47;2.90;99.90
32322;DHT22;61553;48.994;8.940;2022-12-07T04:12:13;2.90;99.90
32322;DHT22;61553;48.994;8.940;2022-12-07T04:14:38;2.80;99.90
32322;DHT22;61553;48.994;8.940;2022-12-07T04:17:04;2.80;99.90
32322;DHT22;61553;48.994;8.940;2022-12-07T04:19:33;2.70;99.90
32322;DHT22;61553;48.994;8.940;2022-12-07T04:22:00;2.70;99.90
32322;DHT22;61553;48.994;8.940;2022-12-07T04:24:27;2.70;99.90
32322;DHT22;61553;48.994;8.940;2022-12-07T04:26:53;2.70;99.90
32322;DHT22;61553;48.994;8.940;2022-12-07T04:29:19;2.60;99.90
32322;DHT22;61553;48.994;8.940;2022-12-07T04:31:45;2.70;99.90
32322;DHT22;61553;48.994;8.940;2022-12-07T04:34:11;2.60;99.90
32322;DHT22;61553;48.994;8.940;2022-12-07T04:36:37;2.50;99.90
32322;DHT22;61553;48.994;8.940;2022-12-07T04:39:05;2.40;99.90
32322;DHT22;61553;48.994;8.940;2022-12-07T04:41:31;2.30;99.90
32322;DHT22;61553;48.994;8.940;2022-12-07T04:44:00;2.20;99.90
32322;DHT22;61553;48.994;8.940;2022-12-07T04:46:27;2.10;99.90
32322;DHT22;61553;48.994;8.940;2022-12-07T04:48:54;2.00;99.90
32322;DHT22;61553;48.994;8.940;2022-12-07T04:51:25;1.80;99.90
32322;DHT22;61553;48.994;8.940;2022-12-07T04:53:51;1.80;99.90
32322;DHT22;61553;48.994;8.940;2022-12-07T04:56:17;1.80;99.90
32322;DHT22;61553;48.994;8.940;2022-12-07T04:58:45;1.70;99.90
32322;DHT22;61553;48.994;8.940;2022-12-07T05:01:11;1.70;99.90
32322;DHT22;61553;48.994;8.940;2022-12-07T05:03:37;1.70;99.90
32322;DHT22;61553;48.994;8.940;2022-12-07T05:06:03;1.70;99.90
32322;DHT22;61553;48.994;8.940;2022-12-07T05:08:29;1.80;99.90
32322;DHT22;61553;48.994;8.940;2022-12-07T05:10:55;1.80;99.90
32322;DHT22;61553;48.994;8.940;2022-12-07T05:13:21;1.80;99.90
32322;DHT22;61553;48.994;8.940;2022-12-07T05:15:47;1.80;99.90
32322;DHT22;61553;48.994;8.940;2022-12-07T05:18:14;1.80;99.90
32322;DHT22;61553;48.994;8.940;2022-12-07T05:20:40;2.00;99.90
32322;DHT22;61553;48.994;8.940;2022-12-07T05:23:06;2.10;99.90
32322;DHT22;61553;48.994;8.940;2022-12-07T05:25:32;2.10;99.90
32322;DHT22;61553;48.994;8.940;2022-12-07T05:27:57;2.10;99.90
32322;DHT22;61553;48.994;8.940;2022-12-07T05:30:24;2.20;99.90
32322;DHT22;61553;48.994;8.940;2022-12-07T05:32:50;2.20;99.90
32322;DHT22;61553;48.994;8.940;2022-12-07T05:35:16;2.20;99.90
32322;DHT22;61553;48.994;8.940;2022-12-07T05:37:42;2.20;99.90
32322;DHT22;61553;48.994;8.940;2022-12-07T05:40:09;2.20;99.90
32322;DHT22;61553;48.994;8.940;2022-12-07T05:42:35;2.30;99.90
32322;DHT22;61553;48.994;8.940;2022-12-07T05:45:00;2.40;99.90
32322;DHT22;61553;48.994;8.940;2022-12-07T05:47:26;2.40;99.90
32322;DHT22;61553;48.994;8.940;2022-12-07T05:49:52;2.50;99.90
32322;DHT22;61553;48.994;8.940;2022-12-07T05:52:18;2.60;99.90
32322;DHT22;61553;48.994;8.940;2022-12-07T05:54:43;2.60;99.90
32322;DHT22;61553;48.994;8.940;2022-12-07T05:57:09;2.60;99.90
32322;DHT22;61553;48.994;8.940;2022-12-07T05:59:36;2.60;99.90
32322;DHT22;61553;48.994;8.940;2022-12-07T06:02:14;2.60;99.90
32322;DHT22;61553;48.994;8.940;2022-12-07T06:04:44;2.60;99.90
32322;DHT22;61553;48.994;8.940;2022-12-07T06:07:11;2.60;99.90
32322;DHT22;61553;48.994;8.940;2022-12-07T06:09:37;2.70;99.90
32322;DHT22;61553;48.994;8.940;2022-12-07T06:12:04;2.70;99.90
32322;DHT22;61553;48.994;8.940;2022-12-07T06:14:48;2.70;99.90
32322;DHT22;61553;48.994;8.940;2022-12-07T06:17:14;2.70;99.90
32322;DHT22;61553;48.994;8.940;2022-12-07T06:19:41;2.70;99.90
32322;DHT22;61553;48.994;8.940;2022-12-07T06:22:07;2.70;99.90
32322;DHT22;61553;48.994;8.940;2022-12-07T06:24:34;2.70;99.90
32322;DHT22;61553;48.994;8.940;2022-12-07T06:27:00;2.70;99.90
32322;DHT22;61553;48.994;8.940;2022-12-07T06:29:26;2.70;99.90
32322;DHT22;61553;48.994;8.940;2022-12-07T06:31:52;2.70;99.90
32322;DHT22;61553;48.994;8.940;2022-12-07T06:34:19;2.70;99.90
32322;DHT22;61553;48.994;8.940;2022-12-07T06:36:46;2.80;99.90
32322;DHT22;61553;48.994;8.940;2022-12-07T06:39:17;2.80;99.90
32322;DHT22;61553;48.994;8.940;2022-12-07T06:41:42;2.80;99.90
32322;DHT22;61553;48.994;8.940;2022-12-07T06:44:08;2.80;99.90
32322;DHT22;61553;48.994;8.940;2022-12-07T06:46:34;2.80;99.90
32322;DHT22;61553;48.994;8.940;2022-12-07T06:49:04;2.70;99.90
32322;DHT22;61553;48.994;8.940;2022-12-07T06:51:30;2.80;99.90
32322;DHT22;61553;48.994;8.940;2022-12-07T06:53:56;2.80;99.90
32322;DHT22;61553;48.994;8.940;2022-12-07T06:56:21;2.80;99.90
32322;DHT22;61553;48.994;8.940;2022-12-07T06:58:48;2.80;99.90
32322;DHT22;61553;48.994;8.940;2022-12-07T07:01:16;2.90;99.90
32322;DHT22;61553;48.994;8.940;2022-12-07T07:03:43;2.90;99.90
32322;DHT22;61553;48.994;8.940;2022-12-07T07:06:10;2.80;99.90
32322;DHT22;61553;48.994;8.940;2022-12-07T07:08:36;2.90;99.90
32322;DHT22;61553;48.994;8.940;2022-12-07T07:11:03;2.90;99.90
32322;DHT22;61553;48.994;8.940;2022-12-07T07:13:29;2.90;99.90
32322;DHT22;61553;48.994;8.940;2022-12-07T07:15:55;2.80;99.90
32322;DHT22;61553;48.994;8.940;2022-12-07T07:18:21;2.90;99.90
32322;DHT22;61553;48.994;8.940;2022-12-07T07:20:47;2.80;99.90
32322;DHT22;61553;48.994;8.940;2022-12-07T07:23:12;2.90;99.90
32322;DHT22;61553;48.994;8.940;2022-12-07T07:25:38;2.90;99.90
32322;DHT22;61553;48.994;8.940;2022-12-07T07:28:04;2.90;99.90
32322;DHT22;61553;48.994;8.940;2022-12-07T07:30:30;2.90;99.90
32322;DHT22;61553;48.994;8.940;2022-12-07T07:32:57;2.90;99.90
32322;DHT22;61553;48.994;8.940;2022-12-07T07:35:24;2.90;99.90
32322;DHT22;61553;48.994;8.940;2022-12-07T07:37:49;2.80;99.90
32322;DHT22;61553;48.994;8.940;2022-12-07T07:40:15;2.90;99.90
32322;DHT22;61553;48.994;8.940;2022-12-07T07:42:41;2.90;99.90
32322;DHT22;61553;48.994;8.940;2022-12-07T07:45:07;2.90;99.90
32322;DHT22;61553;48.994;8.940;2022-12-07T07:47:33;3.00;99.90
32322;DHT22;61553;48.994;8.940;2022-12-07T07:49:59;3.10;99.90
32322;DHT22;61553;48.994;8.940;2022-12-07T07:52:25;3.10;99.90
32322;DHT22;61553;48.994;8.940;2022-12-07T07:54:51;3.20;99.90
32322;DHT22;61553;48.994;8.940;2022-12-07T07:57:17;3.30;99.90
32322;DHT22;61553;48.994;8.940;2022-12-07T07:59:42;3.30;99.90
32322;DHT22;61553;48.994;8.940;2022-12-07T08:02:19;3.40;99.90
32322;DHT22;61553;48.994;8.940;2022-12-07T08:04:45;3.50;99.90
32322;DHT22;61553;48.994;8.940;2022-12-07T08:07:12;3.60;99.90
32322;DHT22;61553;48.994;8.940;2022-12-07T08:09:38;3.60;99.90
32322;DHT22;61553;48.994;8.940;2022-12-07T08:12:05;3.70;99.90
32322;DHT22;61553;48.994;8.940;2022-12-07T08:14:31;3.80;99.90
32322;DHT22;61553;48.994;8.940;2022-12-07T08:16:56;3.80;99.90
32322;DHT22;61553;48.994;8.940;2022-12-07T08:19:22;3.90;99.90
32322;DHT22;61553;48.994;8.940;2022-12-07T08:21:48;4.00;99.90
32322;DHT22;61553;48.994;8.940;2022-12-07T08:24:14;4.10;99.90
32322;DHT22;61553;48.994;8.940;2022-12-07T08:26:40;4.20;99.90
32322;DHT22;61553;48.994;8.940;2022-12-07T08:29:06;4.30;99.90
32322;DHT22;61553;48.994;8.940;2022-12-07T08:31:32;4.40;99.90
32322;DHT22;61553;48.994;8.940;2022-12-07T08:33:58;4.40;99.90
32322;DHT22;61553;48.994;8.940;2022-12-07T08:36:23;4.50;99.90
32322;DHT22;61553;48.994;8.940;2022-12-07T08:38:50;4.50;99.90
32322;DHT22;61553;48.994;8.940;2022-12-07T08:41:16;4.50;99.90
32322;DHT22;61553;48.994;8.940;2022-12-07T08:43:42;4.60;99.90
32322;DHT22;61553;48.994;8.940;2022-12-07T08:46:24;4.70;99.90
32322;DHT22;61553;48.994;8.940;2022-12-07T08:51:42;4.70;99.90
32322;DHT22;61553;48.994;8.940;2022-12-07T08:54:11;4.80;99.90
32322;DHT22;61553;48.994;8.940;2022-12-07T08:56:39;4.80;99.90
32322;DHT22;61553;48.994;8.940;2022-12-07T08:59:05;4.80;99.90
32322;DHT22;61553;48.994;8.940;2022-12-07T09:01:31;4.80;99.90
32322;DHT22;61553;48.994;8.940;2022-12-07T09:03:58;4.90;99.90
32322;DHT22;61553;48.994;8.940;2022-12-07T09:06:23;4.80;99.90
32322;DHT22;61553;48.994;8.940;2022-12-07T09:08:52;4.90;99.90
32322;DHT22;61553;48.994;8.940;2022-12-07T09:11:19;4.80;99.90
32322;DHT22;61553;48.994;8.940;2022-12-07T09:13:44;4.70;99.90
32322;DHT22;61553;48.994;8.940;2022-12-07T09:16:10;4.70;99.90
32322;DHT22;61553;48.994;8.940;2022-12-07T09:18:36;4.70;99.90
32322;DHT22;61553;48.994;8.940;2022-12-07T09:21:03;4.70;99.90
32322;DHT22;61553;48.994;8.940;2022-12-07T09:23:29;4.70;99.90
32322;DHT22;61553;48.994;8.940;2022-12-07T09:25:54;4.70;99.90
32322;DHT22;61553;48.994;8.940;2022-12-07T09:28:20;4.70;99.90
32322;DHT22;61553;48.994;8.940;2022-12-07T09:30:49;4.70;99.90
32322;DHT22;61553;48.994;8.940;2022-12-07T09:33:15;4.80;99.90
32322;DHT22;61553;48.994;8.940;2022-12-07T09:35:51;4.90;99.90
32322;DHT22;61553;48.994;8.940;2022-12-07T09:38:17;5.10;99.90
32322;DHT22;61553;48.994;8.940;2022-12-07T09:40:44;5.20;99.90
32322;DHT22;61553;48.994;8.940;2022-12-07T09:43:19;5.30;99.90
32322;DHT22;61553;48.994;8.940;2022-12-07T09:45:48;5.30;99.90
32322;DHT22;61553;48.994;8.940;2022-12-07T09:48:30;5.80;99.90
32322;DHT22;61553;48.994;8.940;2022-12-07T09:50:59;6.40;99.90
32322;DHT22;61553;48.994;8.940;2022-12-07T09:53:32;6.30;99.90
32322;DHT22;61553;48.994;8.940;2022-12-07T09:55:59;6.50;99.90
32322;DHT22;61553;48.994;8.940;2022-12-07T09:58:27;6.20;99.90
32322;DHT22;61553;48.994;8.940;2022-12-07T10:01:05;6.10;99.90
32322;DHT22;61553;48.994;8.940;2022-12-07T10:03:31;6.10;99.90
32322;DHT22;61553;48.994;8.940;2022-12-07T10:05:57;6.20;99.90
32322;DHT22;61553;48.994;8.940;2022-12-07T10:08:25;6.40;99.90
32322;DHT22;61553;48.994;8.940;2022-12-07T10:10:53;6.70;99.90
32322;DHT22;61553;48.994;8.940;2022-12-07T10:13:21;7.20;99.90
32322;DHT22;61553;48.994;8.940;2022-12-07T10:15:57;7.50;99.90
32322;DHT22;61553;48.994;8.940;2022-12-07T10:21:15;7.10;99.90
32322;DHT22;61553;48.994;8.940;2022-12-07T10:24:02;6.70;99.90
32322;DHT22;61553;48.994;8.940;2022-12-07T10:26:37;6.50;99.90
32322;DHT22;61553;48.994;8.940;2022-12-07T10:29:28;6.40;99.90
32322;DHT22;61553;48.994;8.940;2022-12-07T10:32:03;6.20;99.90
32322;DHT22;61553;48.994;8.940;2022-12-07T10:34:32;6.60;99.90
32322;DHT22;61553;48.994;8.940;2022-12-07T10:37:19;6.90;99.90
32322;DHT22;61553;48.994;8.940;2022-12-07T10:39:53;6.90;99.90
32322;DHT22;61553;48.994;8.940;2022-12-07T10:42:21;6.70;99.90
32322;DHT22;61553;48.994;8.940;2022-12-07T10:44:48;6.60;99.90
32322;DHT22;61553;48.994;8.940;2022-12-07T10:47:43;6.40;99.90
32322;DHT22;61553;48.994;8.940;2022-12-07T10:57:46;6.30;99.90
32322;DHT22;61553;48.994;8.940;2022-12-07T11:00:19;6.50;99.90
32322;DHT22;61553;48.994;8.940;2022-12-07T11:14:44;7.20;99.90
32322;DHT22;61553;48.994;8.940;2022-12-07T11:17:26;7.30;99.90
32322;DHT22;61553;48.994;8.940;2022-12-07T11:20:15;7.20;99.90
32322;DHT22;61553;48.994;8.940;2022-12-07T11:23:03;7.00;99.90
32322;DHT22;61553;48.994;8.940;2022-12-07T11:33:47;6.70;99.90
32322;DHT22;61553;48.994;8.940;2022-12-07T11:36:41;6.40;99.90
32322;DHT22;61553;48.994;8.940;2022-12-07T11:39:36;6.20;99.90
32322;DHT22;61553;48.994;8.940;2022-12-07T11:42:09;6.00;99.90
32322;DHT22;61553;48.994;8.940;2022-12-07T12:03:37;5.50;99.90
32322;DHT22;61553;48.994;8.940;2022-12-07T12:06:04;5.50;99.90
32322;DHT22;61553;48.994;8.940;2022-12-07T12:08:35;5.60;99.90
32322;DHT22;61553;48.994;8.940;2022-12-07T12:14:10;5.60;99.90
32322;DHT22;61553;48.994;8.940;2022-12-07T12:22:02;5.50;99.90
32322;DHT22;61553;48.994;8.940;2022-12-07T12:24:31;5.60;99.90
32322;DHT22;61553;48.994;8.940;2022-12-07T12:29:54;5.80;99.90
32322;DHT22;61553;48.994;8.940;2022-12-07T12:32:23;5.80;99.90
32322;DHT22;61553;48.994;8.940;2022-12-07T12:42:56;6.10;99.90
32322;DHT22;61553;48.994;8.940;2022-12-07T12:45:23;6.10;99.90
32322;DHT22;61553;48.994;8.940;2022-12-07T12:50:36;6.20;99.90
32322;DHT22;61553;48.994;8.940;2022-12-07T12:53:15;6.20;99.90
32322;DHT22;61553;48.994;8.940;2022-12-07T13:00:44;6.40;99.90
32322;DHT22;61553;48.994;8.940;2022-12-07T13:03:30;6.20;99.90
32322;DHT22;61553;48.994;8.940;2022-12-07T13:08:55;6.40;99.90
32322;DHT22;61553;48.994;8.940;2022-12-07T13:17:03;6.20;99.90
32322;DHT22;61553;48.994;8.940;2022-12-07T13:19:55;6.30;99.90
32322;DHT22;61553;48.994;8.940;2022-12-07T13:27:24;6.20;99.90
32322;DHT22;61553;48.994;8.940;2022-12-07T13:29:50;6.20;99.90
32322;DHT22;61553;48.994;8.940;2022-12-07T13:32:25;6.10;99.90
32322;DHT22;61553;48.994;8.940;2022-12-07T13:34:51;6.00;99.90
32322;DHT22;61553;48.994;8.940;2022-12-07T13:37:26;5.80;99.90
32322;DHT22;61553;48.994;8.940;2022-12-07T13:39:55;5.70;99.90
32322;DHT22;61553;48.994;8.940;2022-12-07T13:42:29;5.70;99.90
32322;DHT22;61553;48.994;8.940;2022-12-07T13:44:57;5.70;99.90
32322;DHT22;61553;48.994;8.940;2022-12-07T13:47:36;5.50;99.90
32322;DHT22;61553;48.994;8.940;2022-12-07T13:52:49;5.30;99.90
32322;DHT22;61553;48.994;8.940;2022-12-07T13:55:16;5.30;99.90
32322;DHT22;61553;48.994;8.940;2022-12-07T13:57:44;5.20;99.90
32322;DHT22;61553;48.994;8.940;2022-12-07T14:00:18;5.20;99.90
32322;DHT22;61553;48.994;8.940;2022-12-07T14:02:59;5.20;99.90
32322;DHT22;61553;48.994;8.940;2022-12-07T14:05:28;5.20;99.90
32322;DHT22;61553;48.994;8.940;2022-12-07T14:08:06;5.20;99.90
32322;DHT22;61553;48.994;8.940;2022-12-07T14:13:39;5.30;99.90
32322;DHT22;61553;48.994;8.940;2022-12-07T14:16:36;5.30;99.90
32322;DHT22;61553;48.994;8.940;2022-12-07T14:19:38;5.20;99.90
32322;DHT22;61553;48.994;8.940;2022-12-07T14:22:06;5.10;99.90
32322;DHT22;61553;48.994;8.940;2022-12-07T14:24:41;5.20;99.90
32322;DHT22;61553;48.994;8.940;2022-12-07T14:27:20;5.10;99.90
32322;DHT22;61553;48.994;8.940;2022-12-07T14:29:46;5.00;99.90
32322;DHT22;61553;48.994;8.940;2022-12-07T14:32:26;4.90;99.90
32322;DHT22;61553;48.994;8.940;2022-12-07T14:35:00;4.80;99.90
32322;DHT22;61553;48.994;8.940;2022-12-07T14:37:27;4.80;99.90
32322;DHT22;61553;48.994;8.940;2022-12-07T14:39:54;4.90;99.90
32322;DHT22;61553;48.994;8.940;2022-12-07T14:42:20;4.80;99.90
32322;DHT22;61553;48.994;8.940;2022-12-07T14:44:47;4.80;99.90
32322;DHT22;61553;48.994;8.940;2022-12-07T14:47:12;4.80;99.90
32322;DHT22;61553;48.994;8.940;2022-12-07T14:49:38;4.70;99.90
32322;DHT22;61553;48.994;8.940;2022-12-07T14:52:05;4.70;99.90
32322;DHT22;61553;48.994;8.940;2022-12-07T14:54:32;4.80;99.90
32322;DHT22;61553;48.994;8.940;2022-12-07T14:56:58;4.80;99.90
32322;DHT22;61553;48.994;8.940;2022-12-07T14:59:24;4.60;99.90
32322;DHT22;61553;48.994;8.940;2022-12-07T15:01:50;4.50;99.90
32322;DHT22;61553;48.994;8.940;2022-12-07T15:04:15;4.60;99.90
32322;DHT22;61553;48.994;8.940;2022-12-07T15:06:41;4.60;99.90
32322;DHT22;61553;48.994;8.940;2022-12-07T15:09:10;4.60;99.90
32322;DHT22;61553;48.994;8.940;2022-12-07T15:11:36;4.60;99.90
32322;DHT22;61553;48.994;8.940;2022-12-07T15:14:02;4.60;99.90
32322;DHT22;61553;48.994;8.940;2022-12-07T15:16:35;4.60;99.90
32322;DHT22;61553;48.994;8.940;2022-12-07T15:19:01;4.50;99.90
32322;DHT22;61553;48.994;8.940;2022-12-07T15:21:27;4.50;99.90
32322;DHT22;61553;48.994;8.940;2022-12-07T15:23:53;4.50;99.90
32322;DHT22;61553;48.994;8.940;2022-12-07T15:26:19;4.50;99.90
32322;DHT22;61553;48.994;8.940;2022-12-07T15:28:44;4.50;99.90
32322;DHT22;61553;48.994;8.940;2022-12-07T15:31:14;4.40;99.90
32322;DHT22;61553;48.994;8.940;2022-12-07T15:33:40;4.50;99.90
32322;DHT22;61553;48.994;8.940;2022-12-07T15:36:06;4.40;99.90
32322;DHT22;61553;48.994;8.940;2022-12-07T15:38:32;4.40;99.90
32322;DHT22;61553;48.994;8.940;2022-12-07T15:40:58;4.30;99.90
32322;DHT22;61553;48.994;8.940;2022-12-07T15:43:23;4.30;99.90
32322;DHT22;61553;48.994;8.940;2022-12-07T15:46:07;4.20;99.90
32322;DHT22;61553;48.994;8.940;2022-12-07T15:48:33;4.20;99.90
32322;DHT22;61553;48.994;8.940;2022-12-07T15:51:07;4.20;99.90
32322;DHT22;61553;48.994;8.940;2022-12-07T15:53:34;4.20;99.90
32322;DHT22;61553;48.994;8.940;2022-12-07T15:56:00;4.20;99.90
32322;DHT22;61553;48.994;8.940;2022-12-07T15:58:26;4.20;99.90
32322;DHT22;61553;48.994;8.940;2022-12-07T16:00:52;4.10;99.90
32322;DHT22;61553;48.994;8.940;2022-12-07T16:03:18;4.10;99.90
32322;DHT22;61553;48.994;8.940;2022-12-07T16:05:49;4.10;99.90
32322;DHT22;61553;48.994;8.940;2022-12-07T16:08:15;4.10;99.90
32322;DHT22;61553;48.994;8.940;2022-12-07T16:10:40;4.10;99.90
32322;DHT22;61553;48.994;8.940;2022-12-07T16:13:09;4.00;99.90
32322;DHT22;61553;48.994;8.940;2022-12-07T16:15:41;3.90;99.90
32322;DHT22;61553;48.994;8.940;2022-12-07T16:18:07;3.60;99.90
32322;DHT22;61553;48.994;8.940;2022-12-07T16:20:32;3.40;99.90
32322;DHT22;61553;48.994;8.940;2022-12-07T16:22:58;3.30;99.90
32322;DHT22;61553;48.994;8.940;2022-12-07T16:25:24;3.20;99.90
32322;DHT22;61553;48.994;8.940;2022-12-07T16:27:51;3.00;99.90
32322;DHT22;61553;48.994;8.940;2022-12-07T16:30:17;2.90;99.90
32322;DHT22;61553;48.994;8.940;2022-12-07T16:32:43;2.80;99.90
32322;DHT22;61553;48.994;8.940;2022-12-07T16:35:09;2.60;99.90
32322;DHT22;61553;48.994;8.940;2022-12-07T16:37:35;2.50;99.90
32322;DHT22;61553;48.994;8.940;2022-12-07T16:40:01;2.40;99.90
32322;DHT22;61553;48.994;8.940;2022-12-07T16:42:26;2.30;99.90
32322;DHT22;61553;48.994;8.940;2022-12-07T16:44:52;2.20;99.90
32322;DHT22;61553;48.994;8.940;2022-12-07T16:47:18;2.10;99.90
32322;DHT22;61553;48.994;8.940;2022-12-07T16:49:43;2.10;99.90
32322;DHT22;61553;48.994;8.940;2022-12-07T16:52:09;2.10;99.90
32322;DHT22;61553;48.994;8.940;2022-12-07T16:54:36;2.10;99.90
32322;DHT22;61553;48.994;8.940;2022-12-07T16:57:01;2.20;99.90
32322;DHT22;61553;48.994;8.940;2022-12-07T16:59:27;2.30;99.90
32322;DHT22;61553;48.994;8.940;2022-12-07T17:01:53;2.30;99.90
32322;DHT22;61553;48.994;8.940;2022-12-07T17:04:18;2.40;99.90
32322;DHT22;61553;48.994;8.940;2022-12-07T17:06:44;2.40;99.90
32322;DHT22;61553;48.994;8.940;2022-12-07T17:09:09;2.50;99.90
32322;DHT22;61553;48.994;8.940;2022-12-07T17:11:37;2.60;99.90
32322;DHT22;61553;48.994;8.940;2022-12-07T17:14:03;2.60;99.90
32322;DHT22;61553;48.994;8.940;2022-12-07T17:16:48;2.70;99.90
32322;DHT22;61553;48.994;8.940;2022-12-07T17:19:15;2.70;99.90
32322;DHT22;61553;48.994;8.940;2022-12-07T17:21:42;2.80;99.90
32322;DHT22;61553;48.994;8.940;2022-12-07T17:24:09;2.90;99.90
32322;DHT22;61553;48.994;8.940;2022-12-07T17:26:36;2.90;99.90
32322;DHT22;61553;48.994;8.940;2022-12-07T17:29:04;2.80;99.90
32322;DHT22;61553;48.994;8.940;2022-12-07T17:31:30;2.90;99.90
32322;DHT22;61553;48.994;8.940;2022-12-07T17:33:57;2.90;99.90
32322;DHT22;61553;48.994;8.940;2022-12-07T17:36:26;2.90;99.90
32322;DHT22;61553;48.994;8.940;2022-12-07T17:38:52;3.00;99.90
32322;DHT22;61553;48.994;8.940;2022-12-07T17:41:20;3.00;99.90
32322;DHT22;61553;48.994;8.940;2022-12-07T17:44:07;3.00;99.90
32322;DHT22;61553;48.994;8.940;2022-12-07T17:46:34;3.10;99.90
32322;DHT22;61553;48.994;8.940;2022-12-07T17:49:00;3.10;99.90
32322;DHT22;61553;48.994;8.940;2022-12-07T17:51:26;3.10;99.90
32322;DHT22;61553;48.994;8.940;2022-12-07T17:54:11;3.20;99.90
32322;DHT22;61553;48.994;8.940;2022-12-07T17:56:37;3.20;99.90
32322;DHT22;61553;48.994;8.940;2022-12-07T17:59:04;3.20;99.90
32322;DHT22;61553;48.994;8.940;2022-12-07T18:01:30;3.20;99.90
32322;DHT22;61553;48.994;8.940;2022-12-07T18:03:56;3.10;99.90
32322;DHT22;61553;48.994;8.940;2022-12-07T18:06:22;3.20;99.90
32322;DHT22;61553;48.994;8.940;2022-12-07T18:08:47;3.20;99.90